sensor_id;sensor_type;location;lat;lon;timestamp;P1;durP1;ratioP1;P2;durP2;ratioP2
48207;SDS011;33997;53.278;9.708;2022-11-13T00:00:30;19.92;;;12.40;;
48207;SDS011;33997;53.278;9.708;2022-11-13T00:02:56;22.75;;;12.82;;
48207;SDS011;33997;53.278;9.708;2022-11-13T00:05:21;17.58;;;11.73;;
48207;SDS011;33997;53.278;9.708;2022-11-13T00:07:47;16.58;;;10.90;;
48207;SDS011;33997;53.278;9.708;2022-11-13T00:10:12;21.13;;;11.73;;
48207;SDS011;33997;53.278;9.708;2022-11-13T00:12:37;20.40;;;11.23;;
48207;SDS011;33997;53.278;9.708;2022-11-13T00:15:03;21.38;;;11.68;;
48207;SDS011;33997;53.278;9.708;2022-11-13T00:17:29;20.38;;;10.95;;
48207;SDS011;33997;53.278;9.708;2022-11-13T00:19:54;21.13;;;10.63;;
48207;SDS011;33997;53.278;9.708;2022-11-13T00:22:20;17.20;;;10.95;;
48207;SDS011;33997;53.278;9.708;2022-11-13T00:24:45;17.30;;;10.40;;
48207;SDS011;33997;53.278;9.708;2022-11-13T00:27:11;15.02;;;10.00;;
48207;SDS011;33997;53.278;9.708;2022-11-13T00:29:40;16.77;;;10.30;;
48207;SDS011;33997;53.278;9.708;2022-11-13T00:32:05;18.45;;;9.75;;
48207;SDS011;33997;53.278;9.708;2022-11-13T00:34:30;18.52;;;10.00;;
48207;SDS011;33997;53.278;9.708;2022-11-13T00:36:56;14.70;;;9.90;;
48207;SDS011;33997;53.278;9.708;2022-11-13T00:39:21;16.52;;;10.60;;
48207;SDS011;33997;53.278;9.708;2022-11-13T00:41:47;14.73;;;9.75;;
48207;SDS011;33997;53.278;9.708;2022-11-13T00:44:12;16.92;;;10.07;;
48207;SDS011;33997;53.278;9.708;2022-11-13T00:46:38;14.68;;;9.52;;
48207;SDS011;33997;53.278;9.708;2022-11-13T00:49:04;15.38;;;10.10;;
48207;SDS011;33997;53.278;9.708;2022-11-13T00:51:29;18.50;;;10.40;;
48207;SDS011;33997;53.278;9.708;2022-11-13T00:53:55;15.50;;;10.10;;
48207;SDS011;33997;53.278;9.708;2022-11-13T00:56:20;16.73;;;10.23;;
48207;SDS011;33997;53.278;9.708;2022-11-13T00:58:46;13.65;;;9.38;;
48207;SDS011;33997;53.278;9.708;2022-11-13T01:01:12;18.25;;;10.00;;
48207;SDS011;33997;53.278;9.708;2022-11-13T01:03:39;15.48;;;10.20;;
48207;SDS011;33997;53.278;9.708;2022-11-13T01:06:13;15.43;;;10.15;;
48207;SDS011;33997;53.278;9.708;2022-11-13T01:08:44;19.67;;;10.25;;
48207;SDS011;33997;53.278;9.708;2022-11-13T01:11:10;17.83;;;10.43;;
48207;SDS011;33997;53.278;9.708;2022-11-13T01:13:41;15.95;;;10.32;;
48207;SDS011;33997;53.278;9.708;2022-11-13T01:16:09;16.70;;;10.40;;
48207;SDS011;33997;53.278;9.708;2022-11-13T01:18:35;17.52;;;10.32;;
48207;SDS011;33997;53.278;9.708;2022-11-13T01:21:04;18.50;;;11.07;;
48207;SDS011;33997;53.278;9.708;2022-11-13T01:23:35;16.73;;;9.95;;
48207;SDS011;33997;53.278;9.708;2022-11-13T01:26:15;16.67;;;10.23;;
48207;SDS011;33997;53.278;9.708;2022-11-13T01:28:45;16.50;;;10.80;;
48207;SDS011;33997;53.278;9.708;2022-11-13T01:31:19;20.10;;;10.63;;
48207;SDS011;33997;53.278;9.708;2022-11-13T01:33:46;17.55;;;10.00;;
48207;SDS011;33997;53.278;9.708;2022-11-13T01:36:13;17.88;;;10.05;;
48207;SDS011;33997;53.278;9.708;2022-11-13T01:38:40;16.85;;;10.15;;
48207;SDS011;33997;53.278;9.708;2022-11-13T01:41:06;18.88;;;10.52;;
48207;SDS011;33997;53.278;9.708;2022-11-13T01:43:35;18.20;;;10.57;;
48207;SDS011;33997;53.278;9.708;2022-11-13T01:46:08;23.90;;;10.95;;
48207;SDS011;33997;53.278;9.708;2022-11-13T01:48:44;20.35;;;10.75;;
48207;SDS011;33997;53.278;9.708;2022-11-13T01:51:44;19.13;;;11.63;;
48207;SDS011;33997;53.278;9.708;2022-11-13T01:54:15;16.98;;;11.60;;
48207;SDS011;33997;53.278;9.708;2022-11-13T01:56:44;22.83;;;12.93;;
48207;SDS011;33997;53.278;9.708;2022-11-13T01:59:14;23.88;;;13.45;;
48207;SDS011;33997;53.278;9.708;2022-11-13T02:01:43;23.65;;;13.25;;
48207;SDS011;33997;53.278;9.708;2022-11-13T02:04:08;23.08;;;13.52;;
48207;SDS011;33997;53.278;9.708;2022-11-13T02:06:35;21.70;;;13.15;;
48207;SDS011;33997;53.278;9.708;2022-11-13T02:09:07;24.88;;;13.13;;
48207;SDS011;33997;53.278;9.708;2022-11-13T02:11:35;29.20;;;14.80;;
48207;SDS011;33997;53.278;9.708;2022-11-13T02:14:01;24.58;;;14.60;;
48207;SDS011;33997;53.278;9.708;2022-11-13T02:16:29;26.58;;;14.32;;
48207;SDS011;33997;53.278;9.708;2022-11-13T02:21:31;25.02;;;13.98;;
48207;SDS011;33997;53.278;9.708;2022-11-13T02:26:53;28.45;;;15.68;;
48207;SDS011;33997;53.278;9.708;2022-11-13T02:29:22;27.30;;;15.65;;
48207;SDS011;33997;53.278;9.708;2022-11-13T02:31:47;35.67;;;18.50;;
48207;SDS011;33997;53.278;9.708;2022-11-13T02:34:13;28.73;;;15.63;;
48207;SDS011;33997;53.278;9.708;2022-11-13T02:36:38;29.92;;;16.33;;
48207;SDS011;33997;53.278;9.708;2022-11-13T02:39:08;30.17;;;17.25;;
48207;SDS011;33997;53.278;9.708;2022-11-13T02:41:35;32.33;;;17.52;;
48207;SDS011;33997;53.278;9.708;2022-11-13T02:44:02;28.83;;;16.42;;
48207;SDS011;33997;53.278;9.708;2022-11-13T02:46:29;31.27;;;17.92;;
48207;SDS011;33997;53.278;9.708;2022-11-13T02:48:54;32.22;;;17.45;;
48207;SDS011;33997;53.278;9.708;2022-11-13T02:51:19;29.23;;;16.63;;
48207;SDS011;33997;53.278;9.708;2022-11-13T02:53:45;32.25;;;17.55;;
48207;SDS011;33997;53.278;9.708;2022-11-13T02:56:10;28.63;;;17.98;;
48207;SDS011;33997;53.278;9.708;2022-11-13T02:58:36;33.20;;;19.27;;
48207;SDS011;33997;53.278;9.708;2022-11-13T03:01:02;36.75;;;18.35;;
48207;SDS011;33997;53.278;9.708;2022-11-13T03:03:28;34.45;;;18.73;;
48207;SDS011;33997;53.278;9.708;2022-11-13T03:05:53;29.00;;;17.42;;
48207;SDS011;33997;53.278;9.708;2022-11-13T03:08:19;35.85;;;17.98;;
48207;SDS011;33997;53.278;9.708;2022-11-13T03:10:47;33.17;;;19.30;;
48207;SDS011;33997;53.278;9.708;2022-11-13T03:13:13;35.38;;;19.55;;
48207;SDS011;33997;53.278;9.708;2022-11-13T03:15:39;39.25;;;18.65;;
48207;SDS011;33997;53.278;9.708;2022-11-13T03:18:04;35.38;;;19.10;;
48207;SDS011;33997;53.278;9.708;2022-11-13T03:20:31;38.85;;;18.67;;
48207;SDS011;33997;53.278;9.708;2022-11-13T03:22:57;34.35;;;19.40;;
48207;SDS011;33997;53.278;9.708;2022-11-13T03:25:22;35.28;;;19.75;;
48207;SDS011;33997;53.278;9.708;2022-11-13T03:27:48;41.05;;;20.20;;
48207;SDS011;33997;53.278;9.708;2022-11-13T03:30:13;33.42;;;19.75;;
48207;SDS011;33997;53.278;9.708;2022-11-13T03:32:39;35.15;;;20.65;;
48207;SDS011;33997;53.278;9.708;2022-11-13T03:35:04;39.95;;;20.92;;
48207;SDS011;33997;53.278;9.708;2022-11-13T03:37:30;42.13;;;20.77;;
48207;SDS011;33997;53.278;9.708;2022-11-13T03:39:56;33.65;;;19.17;;
48207;SDS011;33997;53.278;9.708;2022-11-13T03:42:21;35.67;;;19.98;;
48207;SDS011;33997;53.278;9.708;2022-11-13T03:44:47;38.63;;;20.92;;
48207;SDS011;33997;53.278;9.708;2022-11-13T03:47:13;37.53;;;21.20;;
48207;SDS011;33997;53.278;9.708;2022-11-13T03:49:39;39.50;;;20.58;;
48207;SDS011;33997;53.278;9.708;2022-11-13T03:52:04;38.30;;;21.80;;
48207;SDS011;33997;53.278;9.708;2022-11-13T03:54:30;51.33;;;23.25;;
48207;SDS011;33997;53.278;9.708;2022-11-13T03:56:56;42.25;;;21.88;;
48207;SDS011;33997;53.278;9.708;2022-11-13T03:59:21;43.95;;;23.48;;
48207;SDS011;33997;53.278;9.708;2022-11-13T04:01:47;44.15;;;24.17;;
48207;SDS011;33997;53.278;9.708;2022-11-13T04:04:12;46.42;;;23.48;;
48207;SDS011;33997;53.278;9.708;2022-11-13T04:06:38;50.55;;;24.90;;
48207;SDS011;33997;53.278;9.708;2022-11-13T04:09:03;52.95;;;26.50;;
48207;SDS011;33997;53.278;9.708;2022-11-13T04:11:29;48.50;;;24.05;;
48207;SDS011;33997;53.278;9.708;2022-11-13T04:13:54;45.80;;;25.33;;
48207;SDS011;33997;53.278;9.708;2022-11-13T04:16:19;51.67;;;25.38;;
48207;SDS011;33997;53.278;9.708;2022-11-13T04:18:45;51.05;;;25.95;;
48207;SDS011;33997;53.278;9.708;2022-11-13T04:21:10;54.58;;;26.92;;
48207;SDS011;33997;53.278;9.708;2022-11-13T04:23:36;55.08;;;27.90;;
48207;SDS011;33997;53.278;9.708;2022-11-13T04:26:01;58.67;;;28.85;;
48207;SDS011;33997;53.278;9.708;2022-11-13T04:28:27;59.22;;;29.00;;
48207;SDS011;33997;53.278;9.708;2022-11-13T04:30:53;60.03;;;28.85;;
48207;SDS011;33997;53.278;9.708;2022-11-13T04:33:18;53.20;;;28.13;;
48207;SDS011;33997;53.278;9.708;2022-11-13T04:35:44;57.47;;;28.67;;
48207;SDS011;33997;53.278;9.708;2022-11-13T04:38:10;58.63;;;27.52;;
48207;SDS011;33997;53.278;9.708;2022-11-13T04:40:37;59.92;;;28.55;;
48207;SDS011;33997;53.278;9.708;2022-11-13T04:43:03;59.13;;;29.38;;
48207;SDS011;33997;53.278;9.708;2022-11-13T04:45:28;58.83;;;29.13;;
48207;SDS011;33997;53.278;9.708;2022-11-13T04:47:54;60.67;;;28.77;;
48207;SDS011;33997;53.278;9.708;2022-11-13T04:50:20;60.00;;;29.92;;
48207;SDS011;33997;53.278;9.708;2022-11-13T04:52:45;63.70;;;29.60;;
48207;SDS011;33997;53.278;9.708;2022-11-13T04:55:11;63.88;;;31.67;;
48207;SDS011;33997;53.278;9.708;2022-11-13T04:57:37;57.10;;;29.05;;
48207;SDS011;33997;53.278;9.708;2022-11-13T05:00:03;58.15;;;28.98;;
48207;SDS011;33997;53.278;9.708;2022-11-13T05:02:30;65.25;;;29.95;;
48207;SDS011;33997;53.278;9.708;2022-11-13T05:04:56;65.72;;;29.35;;
48207;SDS011;33997;53.278;9.708;2022-11-13T05:07:22;71.95;;;30.00;;
48207;SDS011;33997;53.278;9.708;2022-11-13T05:09:47;63.92;;;29.98;;
48207;SDS011;33997;53.278;9.708;2022-11-13T05:12:13;65.75;;;30.30;;
48207;SDS011;33997;53.278;9.708;2022-11-13T05:14:42;57.83;;;27.92;;
48207;SDS011;33997;53.278;9.708;2022-11-13T05:17:08;64.07;;;28.55;;
48207;SDS011;33997;53.278;9.708;2022-11-13T05:19:35;61.17;;;28.65;;
48207;SDS011;33997;53.278;9.708;2022-11-13T05:22:01;62.88;;;28.95;;
48207;SDS011;33997;53.278;9.708;2022-11-13T05:24:27;68.13;;;28.63;;
48207;SDS011;33997;53.278;9.708;2022-11-13T05:26:52;65.28;;;28.63;;
48207;SDS011;33997;53.278;9.708;2022-11-13T05:29:18;62.50;;;28.50;;
48207;SDS011;33997;53.278;9.708;2022-11-13T05:31:43;59.13;;;28.20;;
48207;SDS011;33997;53.278;9.708;2022-11-13T05:34:09;56.40;;;28.50;;
48207;SDS011;33997;53.278;9.708;2022-11-13T05:36:35;55.03;;;26.52;;
48207;SDS011;33997;53.278;9.708;2022-11-13T05:39:00;56.88;;;26.05;;
48207;SDS011;33997;53.278;9.708;2022-11-13T05:41:26;58.28;;;25.75;;
48207;SDS011;33997;53.278;9.708;2022-11-13T05:43:52;61.10;;;26.02;;
48207;SDS011;33997;53.278;9.708;2022-11-13T05:46:19;55.55;;;26.02;;
48207;SDS011;33997;53.278;9.708;2022-11-13T05:48:46;51.03;;;25.13;;
48207;SDS011;33997;53.278;9.708;2022-11-13T05:51:17;56.90;;;26.02;;
48207;SDS011;33997;53.278;9.708;2022-11-13T05:53:44;63.10;;;26.90;;
48207;SDS011;33997;53.278;9.708;2022-11-13T05:56:11;57.55;;;24.85;;
48207;SDS011;33997;53.278;9.708;2022-11-13T05:58:37;54.80;;;25.88;;
48207;SDS011;33997;53.278;9.708;2022-11-13T06:01:05;62.55;;;27.40;;
48207;SDS011;33997;53.278;9.708;2022-11-13T06:03:34;61.13;;;28.55;;
48207;SDS011;33997;53.278;9.708;2022-11-13T06:06:00;57.85;;;27.35;;
48207;SDS011;33997;53.278;9.708;2022-11-13T06:08:25;68.20;;;29.05;;
48207;SDS011;33997;53.278;9.708;2022-11-13T06:10:51;63.67;;;27.00;;
48207;SDS011;33997;53.278;9.708;2022-11-13T06:13:17;60.72;;;28.45;;
48207;SDS011;33997;53.278;9.708;2022-11-13T06:15:42;70.07;;;28.60;;
48207;SDS011;33997;53.278;9.708;2022-11-13T06:18:07;63.70;;;28.13;;
48207;SDS011;33997;53.278;9.708;2022-11-13T06:20:34;62.95;;;28.85;;
48207;SDS011;33997;53.278;9.708;2022-11-13T06:23:00;60.10;;;28.92;;
48207;SDS011;33997;53.278;9.708;2022-11-13T06:25:26;63.00;;;28.83;;
48207;SDS011;33997;53.278;9.708;2022-11-13T06:27:52;66.40;;;29.48;;
48207;SDS011;33997;53.278;9.708;2022-11-13T06:30:17;65.75;;;29.77;;
48207;SDS011;33997;53.278;9.708;2022-11-13T06:32:43;76.63;;;30.30;;
48207;SDS011;33997;53.278;9.708;2022-11-13T06:35:09;74.70;;;29.45;;
48207;SDS011;33997;53.278;9.708;2022-11-13T06:37:34;78.95;;;30.17;;
48207;SDS011;33997;53.278;9.708;2022-11-13T06:40:00;74.00;;;30.00;;
48207;SDS011;33997;53.278;9.708;2022-11-13T06:42:25;66.35;;;30.02;;
48207;SDS011;33997;53.278;9.708;2022-11-13T06:44:51;65.53;;;30.42;;
48207;SDS011;33997;53.278;9.708;2022-11-13T06:47:16;82.43;;;30.45;;
48207;SDS011;33997;53.278;9.708;2022-11-13T06:49:42;71.82;;;30.58;;
48207;SDS011;33997;53.278;9.708;2022-11-13T06:52:07;74.60;;;31.75;;
48207;SDS011;33997;53.278;9.708;2022-11-13T06:54:33;73.35;;;30.67;;
48207;SDS011;33997;53.278;9.708;2022-11-13T06:56:58;64.88;;;28.92;;
48207;SDS011;33997;53.278;9.708;2022-11-13T06:59:23;78.70;;;30.80;;
48207;SDS011;33997;53.278;9.708;2022-11-13T07:01:49;74.00;;;30.63;;
48207;SDS011;33997;53.278;9.708;2022-11-13T07:04:15;64.90;;;28.85;;
48207;SDS011;33997;53.278;9.708;2022-11-13T07:06:41;65.70;;;28.33;;
48207;SDS011;33997;53.278;9.708;2022-11-13T07:09:06;70.63;;;29.40;;
48207;SDS011;33997;53.278;9.708;2022-11-13T07:11:32;66.85;;;29.60;;
48207;SDS011;33997;53.278;9.708;2022-11-13T07:13:58;60.05;;;26.73;;
48207;SDS011;33997;53.278;9.708;2022-11-13T07:16:23;65.25;;;28.95;;
48207;SDS011;33997;53.278;9.708;2022-11-13T07:18:52;74.28;;;28.10;;
48207;SDS011;33997;53.278;9.708;2022-11-13T07:21:18;62.78;;;28.00;;
48207;SDS011;33997;53.278;9.708;2022-11-13T07:23:45;70.55;;;28.45;;
48207;SDS011;33997;53.278;9.708;2022-11-13T07:26:12;64.03;;;29.80;;
48207;SDS011;33997;53.278;9.708;2022-11-13T07:28:37;70.05;;;29.38;;
48207;SDS011;33997;53.278;9.708;2022-11-13T07:31:03;69.40;;;29.33;;
48207;SDS011;33997;53.278;9.708;2022-11-13T07:33:29;65.07;;;28.38;;
48207;SDS011;33997;53.278;9.708;2022-11-13T07:35:55;66.63;;;27.95;;
48207;SDS011;33997;53.278;9.708;2022-11-13T07:38:21;65.68;;;28.85;;
48207;SDS011;33997;53.278;9.708;2022-11-13T07:40:47;67.57;;;29.20;;
48207;SDS011;33997;53.278;9.708;2022-11-13T07:43:12;71.35;;;28.35;;
48207;SDS011;33997;53.278;9.708;2022-11-13T07:45:38;65.90;;;28.40;;
48207;SDS011;33997;53.278;9.708;2022-11-13T07:48:03;65.18;;;25.98;;
48207;SDS011;33997;53.278;9.708;2022-11-13T07:50:33;66.03;;;27.33;;
48207;SDS011;33997;53.278;9.708;2022-11-13T07:53:01;68.97;;;28.17;;
48207;SDS011;33997;53.278;9.708;2022-11-13T07:55:29;72.28;;;29.10;;
48207;SDS011;33997;53.278;9.708;2022-11-13T07:57:58;71.28;;;28.80;;
48207;SDS011;33997;53.278;9.708;2022-11-13T08:00:25;68.25;;;28.08;;
48207;SDS011;33997;53.278;9.708;2022-11-13T08:02:51;73.15;;;27.75;;
48207;SDS011;33997;53.278;9.708;2022-11-13T08:05:17;56.58;;;24.92;;
48207;SDS011;33997;53.278;9.708;2022-11-13T08:07:45;70.38;;;29.10;;
48207;SDS011;33997;53.278;9.708;2022-11-13T08:10:12;70.88;;;27.27;;
48207;SDS011;33997;53.278;9.708;2022-11-13T08:12:37;73.47;;;28.42;;
48207;SDS011;33997;53.278;9.708;2022-11-13T08:15:03;78.38;;;29.40;;
48207;SDS011;33997;53.278;9.708;2022-11-13T08:17:29;74.97;;;29.55;;
48207;SDS011;33997;53.278;9.708;2022-11-13T08:19:54;88.22;;;32.35;;
48207;SDS011;33997;53.278;9.708;2022-11-13T08:22:20;86.07;;;31.90;;
48207;SDS011;33997;53.278;9.708;2022-11-13T08:24:45;85.88;;;32.00;;
48207;SDS011;33997;53.278;9.708;2022-11-13T08:27:11;88.03;;;32.47;;
48207;SDS011;33997;53.278;9.708;2022-11-13T08:29:36;80.07;;;31.33;;
48207;SDS011;33997;53.278;9.708;2022-11-13T08:32:02;77.32;;;32.25;;
48207;SDS011;33997;53.278;9.708;2022-11-13T08:34:28;98.38;;;34.13;;
48207;SDS011;33997;53.278;9.708;2022-11-13T08:36:54;91.63;;;33.50;;
48207;SDS011;33997;53.278;9.708;2022-11-13T08:39:19;100.32;;;31.90;;
48207;SDS011;33997;53.278;9.708;2022-11-13T08:41:45;92.78;;;33.60;;
48207;SDS011;33997;53.278;9.708;2022-11-13T08:44:10;94.18;;;34.05;;
48207;SDS011;33997;53.278;9.708;2022-11-13T08:46:36;88.38;;;31.63;;
48207;SDS011;33997;53.278;9.708;2022-11-13T08:49:02;96.13;;;33.75;;
48207;SDS011;33997;53.278;9.708;2022-11-13T08:51:28;76.40;;;30.85;;
48207;SDS011;33997;53.278;9.708;2022-11-13T08:53:53;95.80;;;33.20;;
48207;SDS011;33997;53.278;9.708;2022-11-13T08:56:19;91.00;;;33.75;;
48207;SDS011;33997;53.278;9.708;2022-11-13T08:58:44;86.13;;;32.45;;
48207;SDS011;33997;53.278;9.708;2022-11-13T09:01:10;76.93;;;30.67;;
48207;SDS011;33997;53.278;9.708;2022-11-13T09:03:35;74.13;;;30.63;;
48207;SDS011;33997;53.278;9.708;2022-11-13T09:06:07;80.30;;;30.48;;
48207;SDS011;33997;53.278;9.708;2022-11-13T09:08:33;72.75;;;30.27;;
48207;SDS011;33997;53.278;9.708;2022-11-13T09:11:05;74.18;;;28.25;;
48207;SDS011;33997;53.278;9.708;2022-11-13T09:13:31;63.90;;;27.35;;
48207;SDS011;33997;53.278;9.708;2022-11-13T09:15:58;69.38;;;28.88;;
48207;SDS011;33997;53.278;9.708;2022-11-13T09:18:24;65.15;;;26.83;;
48207;SDS011;33997;53.278;9.708;2022-11-13T09:20:49;67.80;;;25.83;;
48207;SDS011;33997;53.278;9.708;2022-11-13T09:23:15;63.47;;;25.45;;
48207;SDS011;33997;53.278;9.708;2022-11-13T09:25:40;60.60;;;25.35;;
48207;SDS011;33997;53.278;9.708;2022-11-13T09:28:06;62.58;;;24.30;;
48207;SDS011;33997;53.278;9.708;2022-11-13T09:30:31;51.55;;;24.50;;
48207;SDS011;33997;53.278;9.708;2022-11-13T09:32:58;51.42;;;23.77;;
48207;SDS011;33997;53.278;9.708;2022-11-13T09:35:25;51.63;;;21.58;;
48207;SDS011;33997;53.278;9.708;2022-11-13T09:38:01;46.33;;;22.20;;
48207;SDS011;33997;53.278;9.708;2022-11-13T09:40:32;42.40;;;22.43;;
48207;SDS011;33997;53.278;9.708;2022-11-13T09:43:02;39.10;;;20.48;;
48207;SDS011;33997;53.278;9.708;2022-11-13T09:45:34;43.03;;;21.52;;
48207;SDS011;33997;53.278;9.708;2022-11-13T09:48:05;39.10;;;20.92;;
48207;SDS011;33997;53.278;9.708;2022-11-13T09:50:47;37.00;;;19.05;;
48207;SDS011;33997;53.278;9.708;2022-11-13T09:53:13;36.17;;;19.13;;
48207;SDS011;33997;53.278;9.708;2022-11-13T09:55:40;35.90;;;19.67;;
48207;SDS011;33997;53.278;9.708;2022-11-13T09:58:23;33.72;;;18.75;;
48207;SDS011;33997;53.278;9.708;2022-11-13T10:00:55;32.47;;;17.75;;
48207;SDS011;33997;53.278;9.708;2022-11-13T10:06:19;24.70;;;14.43;;
48207;SDS011;33997;53.278;9.708;2022-11-13T10:09:41;26.48;;;15.45;;
48207;SDS011;33997;53.278;9.708;2022-11-13T10:12:18;28.55;;;16.60;;
48207;SDS011;33997;53.278;9.708;2022-11-13T10:14:47;29.20;;;15.88;;
48207;SDS011;33997;53.278;9.708;2022-11-13T10:17:23;25.27;;;16.02;;
48207;SDS011;33997;53.278;9.708;2022-11-13T10:19:59;28.33;;;15.60;;
48207;SDS011;33997;53.278;9.708;2022-11-13T10:22:36;26.85;;;16.80;;
48207;SDS011;33997;53.278;9.708;2022-11-13T10:25:08;28.38;;;16.25;;
48207;SDS011;33997;53.278;9.708;2022-11-13T10:27:37;26.42;;;15.65;;
48207;SDS011;33997;53.278;9.708;2022-11-13T10:30:05;34.22;;;16.25;;
48207;SDS011;33997;53.278;9.708;2022-11-13T10:32:37;29.63;;;15.65;;
48207;SDS011;33997;53.278;9.708;2022-11-13T10:40:06;28.95;;;15.95;;
48207;SDS011;33997;53.278;9.708;2022-11-13T10:42:36;27.40;;;16.65;;
48207;SDS011;33997;53.278;9.708;2022-11-13T10:45:03;29.55;;;15.95;;
48207;SDS011;33997;53.278;9.708;2022-11-13T10:47:32;24.33;;;16.67;;
48207;SDS011;33997;53.278;9.708;2022-11-13T10:50:08;27.95;;;16.73;;
48207;SDS011;33997;53.278;9.708;2022-11-13T10:52:42;29.98;;;15.68;;
48207;SDS011;33997;53.278;9.708;2022-11-13T10:55:25;28.10;;;15.95;;
48207;SDS011;33997;53.278;9.708;2022-11-13T10:58:02;27.05;;;16.17;;
48207;SDS011;33997;53.278;9.708;2022-11-13T11:00:36;24.75;;;15.40;;
48207;SDS011;33997;53.278;9.708;2022-11-13T11:03:06;26.13;;;14.75;;
48207;SDS011;33997;53.278;9.708;2022-11-13T11:05:37;24.25;;;14.50;;
48207;SDS011;33997;53.278;9.708;2022-11-13T11:08:05;24.80;;;14.40;;
48207;SDS011;33997;53.278;9.708;2022-11-13T11:13:10;24.70;;;13.65;;
48207;SDS011;33997;53.278;9.708;2022-11-13T11:15:41;20.98;;;13.13;;
48207;SDS011;33997;53.278;9.708;2022-11-13T11:18:16;23.92;;;13.75;;
48207;SDS011;33997;53.278;9.708;2022-11-13T11:20:48;19.60;;;12.70;;
48207;SDS011;33997;53.278;9.708;2022-11-13T11:31:09;17.08;;;10.65;;
48207;SDS011;33997;53.278;9.708;2022-11-13T11:33:46;17.40;;;11.40;;
48207;SDS011;33997;53.278;9.708;2022-11-13T11:38:53;16.25;;;10.40;;
48207;SDS011;33997;53.278;9.708;2022-11-13T11:41:35;15.35;;;10.02;;
48207;SDS011;33997;53.278;9.708;2022-11-13T11:46:44;12.85;;;9.40;;
48207;SDS011;33997;53.278;9.708;2022-11-13T11:49:10;14.00;;;10.40;;
48207;SDS011;33997;53.278;9.708;2022-11-13T11:52:19;14.43;;;9.30;;
48207;SDS011;33997;53.278;9.708;2022-11-13T11:55:28;13.95;;;9.73;;
48207;SDS011;33997;53.278;9.708;2022-11-13T11:57:48;12.85;;;9.25;;
48207;SDS011;33997;53.278;9.708;2022-11-13T12:00:18;13.55;;;9.60;;
48207;SDS011;33997;53.278;9.708;2022-11-13T12:17:00;12.30;;;8.73;;
48207;SDS011;33997;53.278;9.708;2022-11-13T12:22:23;13.90;;;9.23;;
48207;SDS011;33997;53.278;9.708;2022-11-13T12:30:45;15.70;;;10.32;;
48207;SDS011;33997;53.278;9.708;2022-11-13T12:33:36;15.70;;;9.77;;
48207;SDS011;33997;53.278;9.708;2022-11-13T12:36:11;15.13;;;9.93;;
48207;SDS011;33997;53.278;9.708;2022-11-13T12:41:34;15.02;;;9.90;;
48207;SDS011;33997;53.278;9.708;2022-11-13T12:44:21;15.02;;;9.65;;
48207;SDS011;33997;53.278;9.708;2022-11-13T12:46:51;15.90;;;9.88;;
48207;SDS011;33997;53.278;9.708;2022-11-13T12:51:55;17.60;;;10.20;;
48207;SDS011;33997;53.278;9.708;2022-11-13T12:54:29;16.20;;;9.85;;
48207;SDS011;33997;53.278;9.708;2022-11-13T12:57:04;16.92;;;9.95;;
48207;SDS011;33997;53.278;9.708;2022-11-13T12:59:33;19.40;;;11.25;;
48207;SDS011;33997;53.278;9.708;2022-11-13T13:04:38;19.45;;;12.55;;
48207;SDS011;33997;53.278;9.708;2022-11-13T13:10:30;17.10;;;10.73;;
48207;SDS011;33997;53.278;9.708;2022-11-13T13:13:27;17.02;;;10.60;;
48207;SDS011;33997;53.278;9.708;2022-11-13T13:16:02;17.80;;;10.50;;
48207;SDS011;33997;53.278;9.708;2022-11-13T13:18:32;17.63;;;10.57;;
48207;SDS011;33997;53.278;9.708;2022-11-13T13:21:03;18.88;;;11.23;;
48207;SDS011;33997;53.278;9.708;2022-11-13T13:23:33;20.52;;;10.57;;
48207;SDS011;33997;53.278;9.708;2022-11-13T13:34:27;19.55;;;12.35;;
48207;SDS011;33997;53.278;9.708;2022-11-13T13:37:23;22.77;;;13.25;;
48207;SDS011;33997;53.278;9.708;2022-11-13T13:43:16;24.77;;;14.55;;
48207;SDS011;33997;53.278;9.708;2022-11-13T13:48:19;28.25;;;15.98;;
48207;SDS011;33997;53.278;9.708;2022-11-13T13:50:48;27.95;;;16.95;;
48207;SDS011;33997;53.278;9.708;2022-11-13T13:53:21;28.38;;;16.58;;
48207;SDS011;33997;53.278;9.708;2022-11-13T13:55:50;29.50;;;17.23;;
48207;SDS011;33997;53.278;9.708;2022-11-13T13:58:27;27.98;;;17.45;;
48207;SDS011;33997;53.278;9.708;2022-11-13T14:00:58;33.20;;;18.88;;
48207;SDS011;33997;53.278;9.708;2022-11-13T14:03:25;28.63;;;17.05;;
48207;SDS011;33997;53.278;9.708;2022-11-13T14:05:53;28.80;;;17.77;;
48207;SDS011;33997;53.278;9.708;2022-11-13T14:08:21;28.67;;;17.75;;
48207;SDS011;33997;53.278;9.708;2022-11-13T14:10:49;30.83;;;17.25;;
48207;SDS011;33997;53.278;9.708;2022-11-13T14:13:22;28.23;;;17.40;;
48207;SDS011;33997;53.278;9.708;2022-11-13T14:15:58;28.17;;;17.08;;
48207;SDS011;33997;53.278;9.708;2022-11-13T14:18:28;29.73;;;17.63;;
48207;SDS011;33997;53.278;9.708;2022-11-13T14:20:55;30.25;;;17.67;;
48207;SDS011;33997;53.278;9.708;2022-11-13T14:23:42;28.00;;;16.85;;
48207;SDS011;33997;53.278;9.708;2022-11-13T14:26:10;27.08;;;15.45;;
48207;SDS011;33997;53.278;9.708;2022-11-13T14:28:42;31.25;;;18.30;;
48207;SDS011;33997;53.278;9.708;2022-11-13T14:31:08;27.67;;;16.70;;
48207;SDS011;33997;53.278;9.708;2022-11-13T14:33:43;26.67;;;15.85;;
48207;SDS011;33997;53.278;9.708;2022-11-13T14:36:11;30.15;;;16.20;;
48207;SDS011;33997;53.278;9.708;2022-11-13T14:38:42;27.25;;;16.70;;
48207;SDS011;33997;53.278;9.708;2022-11-13T14:41:18;31.75;;;16.90;;
48207;SDS011;33997;53.278;9.708;2022-11-13T14:43:48;29.90;;;17.00;;
48207;SDS011;33997;53.278;9.708;2022-11-13T14:46:25;25.02;;;14.98;;
48207;SDS011;33997;53.278;9.708;2022-11-13T14:48:53;30.85;;;17.58;;
48207;SDS011;33997;53.278;9.708;2022-11-13T14:51:29;30.35;;;16.35;;
48207;SDS011;33997;53.278;9.708;2022-11-13T14:53:58;25.52;;;14.25;;
48207;SDS011;33997;53.278;9.708;2022-11-13T14:56:35;28.63;;;14.85;;
48207;SDS011;33997;53.278;9.708;2022-11-13T14:59:15;30.73;;;18.07;;
48207;SDS011;33997;53.278;9.708;2022-11-13T15:01:57;28.13;;;17.17;;
48207;SDS011;33997;53.278;9.708;2022-11-13T15:04:23;24.75;;;13.93;;
48207;SDS011;33997;53.278;9.708;2022-11-13T15:06:50;28.63;;;16.40;;
48207;SDS011;33997;53.278;9.708;2022-11-13T15:09:20;27.38;;;15.45;;
48207;SDS011;33997;53.278;9.708;2022-11-13T15:11:47;32.03;;;17.25;;
48207;SDS011;33997;53.278;9.708;2022-11-13T15:14:14;32.83;;;16.95;;
48207;SDS011;33997;53.278;9.708;2022-11-13T15:16:41;36.35;;;18.90;;
48207;SDS011;33997;53.278;9.708;2022-11-13T15:19:11;30.77;;;18.48;;
48207;SDS011;33997;53.278;9.708;2022-11-13T15:21:40;36.35;;;21.75;;
48207;SDS011;33997;53.278;9.708;2022-11-13T15:24:09;32.13;;;18.02;;
48207;SDS011;33997;53.278;9.708;2022-11-13T15:26:35;24.90;;;16.27;;
48207;SDS011;33997;53.278;9.708;2022-11-13T15:29:01;31.25;;;19.58;;
48207;SDS011;33997;53.278;9.708;2022-11-13T15:31:31;38.45;;;22.02;;
48207;SDS011;33997;53.278;9.708;2022-11-13T15:34:02;33.00;;;20.75;;
48207;SDS011;33997;53.278;9.708;2022-11-13T15:36:28;28.33;;;18.13;;
48207;SDS011;33997;53.278;9.708;2022-11-13T15:38:55;31.85;;;19.85;;
48207;SDS011;33997;53.278;9.708;2022-11-13T15:41:21;58.17;;;40.20;;
48207;SDS011;33997;53.278;9.708;2022-11-13T15:43:53;33.85;;;20.50;;
48207;SDS011;33997;53.278;9.708;2022-11-13T15:46:20;32.42;;;21.30;;
48207;SDS011;33997;53.278;9.708;2022-11-13T15:48:47;35.72;;;20.00;;